createdAt,value
2022-08-09T00:00:17.878Z,5.10
2022-08-09T00:02:50.046Z,5.35
2022-08-09T00:06:17.390Z,4.55
2022-08-09T00:08:11.478Z,5.80
2022-08-09T00:10:59.550Z,4.93
2022-08-09T00:13:31.554Z,6.72
2022-08-09T00:18:34.576Z,5.13
2022-08-09T00:21:04.907Z,5.93
2022-08-09T00:23:56.241Z,4.78
2022-08-09T00:26:29.988Z,4.70
2022-08-09T00:29:03.756Z,4.82
2022-08-09T00:31:58.617Z,5.85
2022-08-09T00:34:28.751Z,4.78
2022-08-09T00:37:02.438Z,5.57
2022-08-09T00:40:10.386Z,4.43
2022-08-09T00:44:19.144Z,5.22
2022-08-09T00:45:16.253Z,5.38
2022-08-09T00:47:45.450Z,5.90
2022-08-09T00:50:14.704Z,4.80
2022-08-09T00:52:43.661Z,5.35
2022-08-09T00:55:32.860Z,6.07
2022-08-09T00:58:00.954Z,5.28
2022-08-09T01:00:31.266Z,7.28
2022-08-09T01:03:09.168Z,5.00
2022-08-09T01:05:50.718Z,5.82
2022-08-09T01:08:26.970Z,5.70
2022-08-09T01:11:00.504Z,4.97
2022-08-09T01:13:53.298Z,6.32
2022-08-09T01:16:26.137Z,4.90
2022-08-09T01:21:41.349Z,5.85
2022-08-09T01:24:18.358Z,5.53
2022-08-09T01:26:54.884Z,5.80
2022-08-09T01:29:28.363Z,6.00
2022-08-09T01:32:30.929Z,5.43
2022-08-09T01:35:07.176Z,5.65
2022-08-09T01:38:09.346Z,6.20
2022-08-09T01:40:40.067Z,5.30
2022-08-09T01:43:11.656Z,5.57
2022-08-09T01:45:44.633Z,5.25
2022-08-09T01:48:16.480Z,5.60
2022-08-09T01:50:48.381Z,7.55
2022-08-09T01:53:19.931Z,6.35
2022-08-09T01:58:19.061Z,5.97
2022-08-09T02:00:53.521Z,4.88
2022-08-09T02:03:22.882Z,5.03
2022-08-09T02:06:03.848Z,5.88
2022-08-09T02:08:57.668Z,6.07
2022-08-09T02:11:42.608Z,6.03
2022-08-09T02:14:25.135Z,4.55
2022-08-09T02:16:59.612Z,5.07
2022-08-09T02:19:43.801Z,6.75
2022-08-09T02:22:16.752Z,6.93
2022-08-09T02:24:51.778Z,4.82
2022-08-09T02:27:43.204Z,6.63
2022-08-09T02:30:12.898Z,6.15
2022-08-09T02:32:46.384Z,6.43
2022-08-09T02:35:20.891Z,7.32
2022-08-09T02:37:57.944Z,6.57
2022-08-09T02:43:00.010Z,7.53
2022-08-09T02:45:33.247Z,6.28
2022-08-09T02:48:04.162Z,6.45
2022-08-09T02:50:35.286Z,6.93
2022-08-09T02:53:05.517Z,8.07
2022-08-09T02:55:57.526Z,5.57
2022-08-09T02:58:36.305Z,5.28
2022-08-09T03:01:10.634Z,5.90
2022-08-09T03:04:16.767Z,5.78
2022-08-09T03:06:29.876Z,5.82
2022-08-09T03:08:59.186Z,5.78
2022-08-09T03:11:29.682Z,4.82
2022-08-09T03:14:18.326Z,5.72
2022-08-09T03:16:48.716Z,5.10
2022-08-09T03:19:59.588Z,6.63
2022-08-09T03:22:12.202Z,4.55
2022-08-09T03:25:03.326Z,4.70
2022-08-09T03:27:44.824Z,5.40
2022-08-09T03:30:29.630Z,5.75
2022-08-09T03:33:05.822Z,5.50
2022-08-09T03:36:12.975Z,6.25
2022-08-09T03:38:32.879Z,6.18
2022-08-09T03:41:01.504Z,5.65
2022-08-09T03:43:33.162Z,6.50
2022-08-09T03:46:04.340Z,6.88
2022-08-09T03:48:52.179Z,6.20
2022-08-09T03:51:57.700Z,5.63
2022-08-09T03:54:11.704Z,8.85
2022-08-09T03:56:41.810Z,8.35
2022-08-09T03:59:13.616Z,6.68
2022-08-09T04:01:46.135Z,5.65
2022-08-09T04:04:17.125Z,6.18
2022-08-09T04:06:49.205Z,5.57
2022-08-09T04:09:47.476Z,7.57
2022-08-09T04:12:31.639Z,5.90
2022-08-09T04:15:11.177Z,7.45
2022-08-09T04:17:47.616Z,5.25
2022-08-09T04:20:18.062Z,5.28
2022-08-09T04:22:47.451Z,5.55
2022-08-09T04:25:18.997Z,6.53
2022-08-09T04:27:49.197Z,4.95
2022-08-09T04:30:20.962Z,7.07
2022-08-09T04:32:52.135Z,6.65
2022-08-09T04:35:24.067Z,5.30
2022-08-09T04:37:52.693Z,5.57
2022-08-09T04:40:35.970Z,4.97
2022-08-09T04:43:05.884Z,5.32
2022-08-09T04:45:36.064Z,5.97
2022-08-09T04:48:21.607Z,5.47
2022-08-09T04:50:54.211Z,5.10
2022-08-09T04:53:26.142Z,4.78
2022-08-09T04:55:58.979Z,6.78
2022-08-09T04:58:28.929Z,6.03
2022-08-09T05:00:57.770Z,5.78
2022-08-09T05:03:40.480Z,5.63
2022-08-09T05:06:26.889Z,7.95
2022-08-09T05:09:00.850Z,7.07
2022-08-09T05:11:32.309Z,6.00
2022-08-09T05:14:06.138Z,8.68
2022-08-09T05:16:43.437Z,8.05
2022-08-09T05:19:26.115Z,5.90
2022-08-09T05:22:01.992Z,7.10
2022-08-09T05:24:31.646Z,5.60
2022-08-09T05:27:00.231Z,7.70
2022-08-09T05:29:31.514Z,7.93
2022-08-09T05:32:01.215Z,5.85
2022-08-09T05:34:31.826Z,5.97
2022-08-09T05:37:05.331Z,5.25
2022-08-09T05:39:36.238Z,4.93
2022-08-09T05:42:17.528Z,8.32
2022-08-09T05:44:51.497Z,5.65
2022-08-09T05:47:21.405Z,6.72
2022-08-09T05:50:25.212Z,6.47
2022-08-09T05:52:41.934Z,6.55
2022-08-09T05:55:20.707Z,5.82
2022-08-09T05:57:56.886Z,6.80
2022-08-09T06:00:28.800Z,5.43
2022-08-09T06:02:58.628Z,4.68
2022-08-09T06:05:31.083Z,5.80
2022-08-09T06:08:19.440Z,4.65
2022-08-09T06:10:52.972Z,4.20
2022-08-09T06:13:21.855Z,5.72
2022-08-09T06:15:52.274Z,5.95
2022-08-09T06:18:24.768Z,5.53
2022-08-09T06:20:57.073Z,5.20
2022-08-09T06:23:57.387Z,4.65
2022-08-09T06:26:20.948Z,7.20
2022-08-09T06:28:59.880Z,4.85
2022-08-09T06:31:40.632Z,4.25
2022-08-09T06:34:19.330Z,4.25
2022-08-09T06:36:47.999Z,4.85
2022-08-09T06:39:19.086Z,4.43
2022-08-09T06:44:37.929Z,4.30
2022-08-09T06:47:08.458Z,4.68
2022-08-09T06:50:12.186Z,4.22
2022-08-09T06:52:26.371Z,4.60
2022-08-09T06:54:56.720Z,5.22
2022-08-09T06:57:25.812Z,6.13
2022-08-09T07:00:52.617Z,5.93
2022-08-09T07:03:05.929Z,3.95
2022-08-09T07:05:58.099Z,4.82
2022-08-09T07:08:24.841Z,5.00
2022-08-09T07:10:55.112Z,5.18
2022-08-09T07:13:27.950Z,5.70
2022-08-09T07:16:41.232Z,6.70
2022-08-09T07:18:47.445Z,4.68
2022-08-09T07:23:58.080Z,4.47
2022-08-09T07:26:29.342Z,5.53
2022-08-09T07:29:12.055Z,6.53
2022-08-09T07:31:45.493Z,4.03
2022-08-09T07:34:21.090Z,4.95
2022-08-09T07:36:50.147Z,4.60
2022-08-09T07:42:10.201Z,4.45
2022-08-09T07:44:52.062Z,4.88
2022-08-09T07:47:23.476Z,4.38
2022-08-09T07:50:08.239Z,4.70
2022-08-09T07:52:38.420Z,4.40
2022-08-09T07:55:08.987Z,6.57
2022-08-09T07:57:46.941Z,3.85
2022-08-09T08:00:20.853Z,3.65
2022-08-09T08:03:08.268Z,4.80
2022-08-09T08:05:54.051Z,5.18
2022-08-09T08:09:00.758Z,4.32
2022-08-09T08:12:10.639Z,4.93
2022-08-09T08:14:03.158Z,4.53
2022-08-09T08:16:34.848Z,3.92
2022-08-09T08:19:04.402Z,4.72
2022-08-09T08:21:33.394Z,4.30
2022-08-09T08:24:11.785Z,5.80
2022-08-09T08:26:56.201Z,5.03
2022-08-09T08:29:27.879Z,3.50
2022-08-09T08:32:03.152Z,4.97
2022-08-09T08:34:34.319Z,4.47
2022-08-09T08:37:03.614Z,5.50
2022-08-09T08:39:39.838Z,3.50
2022-08-09T08:42:13.182Z,4.65
2022-08-09T08:44:43.870Z,3.65
2022-08-09T08:47:15.900Z,4.50
2022-08-09T08:49:46.597Z,3.38
2022-08-09T08:52:48.474Z,4.05
2022-08-09T08:55:06.734Z,6.13
2022-08-09T08:57:37.392Z,4.30
2022-08-09T09:00:17.062Z,6.20
2022-08-09T09:02:53.520Z,5.60
2022-08-09T09:05:57.585Z,4.38
2022-08-09T09:08:29.951Z,3.72
2022-08-09T09:11:02.247Z,6.22
2022-08-09T09:13:42.099Z,4.03
2022-08-09T09:16:30.537Z,4.45
2022-08-09T09:22:05.056Z,5.03
2022-08-09T09:24:38.031Z,3.88
2022-08-09T09:27:08.562Z,4.93
2022-08-09T09:30:08.787Z,5.75
2022-08-09T09:32:34.461Z,3.50
2022-08-09T09:35:08.976Z,3.65
2022-08-09T09:37:40.647Z,4.05
2022-08-09T09:40:11.803Z,2.90
2022-08-09T09:42:46.170Z,4.25
2022-08-09T09:45:26.944Z,3.08
2022-08-09T09:48:05.123Z,3.20
2022-08-09T09:50:50.903Z,4.38
2022-08-09T09:53:21.207Z,4.22
2022-08-09T09:56:04.376Z,4.18
2022-08-09T09:58:46.439Z,3.03
2022-08-09T10:01:36.711Z,4.97
2022-08-09T10:06:42.344Z,4.28
2022-08-09T10:09:21.570Z,6.88
2022-08-09T10:11:59.074Z,3.47
2022-08-09T10:14:39.707Z,5.13
2022-08-09T10:17:40.340Z,4.97
2022-08-09T10:20:03.017Z,4.20
2022-08-09T10:22:36.698Z,5.57
2022-08-09T10:25:12.538Z,3.15
2022-08-09T10:27:55.897Z,3.47
2022-08-09T10:32:07.132Z,4.65
2022-08-09T10:34:08.075Z,3.65
2022-08-09T10:36:04.933Z,4.47
2022-08-09T10:38:57.160Z,4.72
2022-08-09T10:41:23.851Z,3.35
2022-08-09T10:44:02.016Z,5.18
2022-08-09T10:46:57.617Z,4.10
2022-08-09T10:49:42.510Z,5.10
2022-08-09T10:52:26.666Z,3.17
2022-08-09T10:54:56.696Z,4.03
2022-08-09T10:57:37.882Z,4.45
2022-08-09T11:00:25.262Z,3.53
2022-08-09T11:03:13.915Z,4.13
2022-08-09T11:05:59.937Z,4.07
2022-08-09T11:08:43.742Z,3.65
2022-08-09T11:11:17.837Z,3.30
2022-08-09T11:13:49.875Z,5.40
2022-08-09T11:16:38.180Z,4.32
2022-08-09T11:19:09.788Z,4.00
2022-08-09T11:21:55.185Z,4.68
2022-08-09T11:24:58.787Z,6.28
2022-08-09T11:28:02.963Z,5.13
2022-08-09T11:30:34.343Z,5.47
2022-08-09T11:33:05.675Z,5.53
2022-08-09T11:35:50.346Z,3.55
2022-08-09T11:38:22.525Z,4.97
2022-08-09T11:40:57.950Z,5.13
2022-08-09T11:43:45.069Z,5.70
2022-08-09T11:46:18.439Z,4.40
2022-08-09T11:48:56.016Z,4.90
2022-08-09T11:52:48.973Z,3.63
2022-08-09T11:54:21.428Z,3.67
2022-08-09T11:57:12.579Z,2.90
2022-08-09T11:59:41.631Z,3.50
2022-08-09T12:02:18.087Z,4.22
2022-08-09T12:05:04.110Z,4.28
2022-08-09T12:07:42.400Z,3.50
2022-08-09T12:10:31.822Z,4.65
2022-08-09T12:13:03.431Z,4.45
2022-08-09T12:15:52.301Z,4.22
2022-08-09T12:18:29.563Z,2.95
2022-08-09T12:21:00.418Z,4.95
2022-08-09T12:23:56.243Z,5.32
2022-08-09T12:26:26.128Z,4.15
2022-08-09T12:29:13.169Z,3.10
2022-08-09T12:32:03.273Z,3.25
2022-08-09T12:34:37.614Z,4.20
2022-08-09T12:37:22.111Z,3.40
2022-08-09T12:40:02.893Z,5.40
2022-08-09T12:42:34.556Z,6.90
2022-08-09T12:45:32.483Z,5.05
2022-08-09T12:47:53.593Z,4.50
2022-08-09T12:50:25.112Z,4.53
2022-08-09T12:53:08.779Z,3.75
2022-08-09T12:56:12.091Z,4.53
2022-08-09T12:58:28.576Z,4.15
2022-08-09T13:00:58.418Z,4.50
2022-08-09T13:03:53.545Z,4.93
2022-08-09T13:06:34.957Z,3.35
2022-08-09T13:09:08.391Z,4.35
2022-08-09T13:11:39.150Z,4.95
2022-08-09T13:14:40.664Z,3.67
2022-08-09T13:17:02.747Z,4.13
2022-08-09T13:20:06.801Z,4.82
2022-08-09T13:22:37.985Z,4.13
2022-08-09T13:25:14.075Z,5.68
2022-08-09T13:27:54.895Z,5.10
2022-08-09T13:30:51.292Z,4.28
2022-08-09T13:33:23.482Z,3.70
2022-08-09T13:36:24.699Z,3.47
2022-08-09T13:38:57.374Z,5.32
2022-08-09T13:41:58.265Z,3.88
2022-08-09T13:44:16.800Z,4.57
2022-08-09T13:47:29.188Z,4.53
2022-08-09T13:49:37.548Z,4.57
2022-08-09T13:52:09.180Z,3.78
2022-08-09T13:54:41.923Z,4.88
2022-08-09T13:57:36.459Z,3.85
2022-08-09T14:00:07.217Z,3.35
2022-08-09T14:02:42.804Z,4.93
2022-08-09T14:06:00.089Z,3.25
2022-08-09T14:08:18.127Z,4.25
2022-08-09T14:10:52.214Z,3.53
2022-08-09T14:14:15.029Z,4.35
2022-08-09T14:16:13.688Z,3.72
2022-08-09T14:18:45.970Z,5.13
2022-08-09T14:21:20.567Z,3.00
2022-08-09T14:23:55.214Z,3.35
2022-08-09T14:26:32.028Z,3.55
2022-08-09T14:29:02.764Z,2.50
2022-08-09T14:31:49.891Z,3.83
2022-08-09T14:34:31.932Z,4.70
2022-08-09T14:37:02.110Z,4.10
2022-08-09T14:39:40.281Z,3.35
2022-08-09T14:42:32.026Z,3.05
2022-08-09T14:46:40.436Z,3.38
2022-08-09T14:47:57.860Z,2.10
2022-08-09T14:50:27.677Z,3.38
2022-08-09T14:52:56.311Z,3.08
2022-08-09T14:55:31.888Z,3.25
2022-08-09T14:58:04.575Z,6.03
2022-08-09T15:00:34.314Z,2.60
2022-08-09T15:03:05.346Z,2.72
2022-08-09T15:05:34.058Z,3.83
2022-08-09T15:08:05.575Z,4.07
2022-08-09T15:10:34.931Z,4.63
2022-08-09T15:13:08.786Z,3.58
2022-08-09T15:15:38.988Z,2.60
2022-08-09T15:18:14.001Z,3.28
2022-08-09T15:21:54.922Z,4.50
2022-08-09T15:24:08.958Z,3.85
2022-08-09T15:26:30.806Z,3.38
2022-08-09T15:29:04.744Z,3.38
2022-08-09T15:31:40.678Z,2.75
2022-08-09T15:34:31.807Z,2.65
2022-08-09T15:36:59.556Z,2.78
2022-08-09T15:39:34.653Z,4.63
2022-08-09T15:42:04.034Z,3.10
2022-08-09T15:44:33.950Z,3.63
2022-08-09T15:47:03.662Z,2.90
2022-08-09T15:49:34.057Z,2.97
2022-08-09T15:52:06.053Z,4.03
2022-08-09T15:54:44.272Z,3.80
2022-08-09T15:57:13.235Z,3.10
2022-08-09T15:59:48.438Z,3.00
2022-08-09T16:02:20.938Z,3.40
2022-08-09T16:04:56.054Z,2.15
2022-08-09T16:07:25.738Z,3.83
2022-08-09T16:10:04.788Z,2.90
2022-08-09T16:12:34.265Z,2.70
2022-08-09T16:16:12.275Z,3.50
2022-08-09T16:17:54.595Z,2.50
2022-08-09T16:20:27.713Z,3.75
2022-08-09T16:23:01.273Z,3.28
2022-08-09T16:28:12.119Z,4.00
2022-08-09T16:30:44.645Z,3.30
2022-08-09T16:33:15.924Z,3.47
2022-08-09T16:35:56.508Z,3.03
2022-08-09T16:38:29.656Z,2.90
2022-08-09T16:40:58.686Z,2.20
2022-08-09T16:43:33.110Z,4.50
2022-08-09T16:46:12.320Z,6.07
2022-08-09T16:48:53.227Z,2.22
2022-08-09T16:51:24.567Z,2.55
2022-08-09T16:56:49.194Z,5.90
2022-08-09T16:59:18.285Z,125.30
2022-08-09T17:01:51.392Z,139.98
2022-08-09T17:04:26.103Z,240.02
2022-08-09T17:08:41.641Z,158.35
2022-08-09T17:09:47.804Z,183.00
2022-08-09T17:12:16.944Z,100.50
2022-08-09T17:14:46.360Z,77.47
2022-08-09T17:17:27.157Z,53.40
2022-08-09T17:20:29.093Z,42.10
2022-08-09T17:22:52.191Z,130.65
2022-08-09T17:25:30.497Z,166.52
2022-08-09T17:28:13.788Z,229.07
2022-08-09T17:30:53.679Z,198.45
2022-08-09T17:33:37.967Z,194.00
2022-08-09T17:36:15.718Z,142.65
2022-08-09T17:38:57.563Z,91.15
2022-08-09T17:41:37.654Z,71.18
2022-08-09T17:44:42.250Z,122.65
2022-08-09T17:46:57.735Z,211.57
2022-08-09T17:49:27.991Z,202.50
2022-08-09T17:51:58.999Z,226.40
2022-08-09T17:54:29.574Z,58.40
2022-08-09T17:56:58.627Z,66.40
2022-08-09T17:59:37.991Z,44.70
2022-08-09T18:02:16.286Z,46.88
2022-08-09T18:04:55.733Z,47.13
2022-08-09T18:07:25.124Z,22.58
2022-08-09T18:10:04.589Z,28.70
2022-08-09T18:12:40.503Z,17.40
2022-08-09T18:15:27.634Z,12.07
2022-08-09T18:18:25.147Z,16.15
2022-08-09T18:21:19.231Z,10.60
2022-08-09T18:24:09.735Z,9.45
2022-08-09T18:26:33.578Z,5.85
2022-08-09T18:30:41.056Z,6.95
2022-08-09T18:31:56.234Z,8.13
2022-08-09T18:34:28.916Z,6.50
2022-08-09T18:36:59.052Z,4.63
2022-08-09T18:39:32.716Z,7.63
2022-08-09T18:42:08.789Z,5.25
2022-08-09T18:44:38.040Z,6.15
2022-08-09T18:47:15.805Z,5.40
2022-08-09T18:49:46.478Z,5.28
2022-08-09T18:52:18.827Z,3.78
2022-08-09T18:54:53.853Z,5.18
2022-08-09T18:57:23.245Z,4.85
2022-08-09T18:59:57.769Z,4.72
2022-08-09T19:02:31.623Z,3.70
2022-08-09T19:05:14.916Z,4.60
2022-08-09T19:08:03.813Z,3.05
2022-08-09T19:10:39.854Z,4.97
2022-08-09T19:13:20.273Z,4.55
2022-08-09T19:16:00.341Z,3.65
2022-08-09T19:18:33.248Z,3.28
2022-08-09T19:21:05.253Z,5.07
2022-08-09T19:24:32.594Z,3.67
2022-08-09T19:26:29.535Z,4.22
2022-08-09T19:29:01.223Z,3.30
2022-08-09T19:31:45.067Z,3.17
2022-08-09T19:34:21.553Z,4.47
2022-08-09T19:36:52.164Z,3.92
2022-08-09T19:39:43.292Z,3.10
2022-08-09T19:42:14.374Z,3.58
2022-08-09T19:44:44.218Z,3.83
2022-08-09T19:47:22.902Z,4.65
2022-08-09T19:50:06.885Z,6.50
2022-08-09T19:52:51.882Z,3.08
2022-08-09T19:58:00.994Z,4.38
2022-08-09T20:00:29.695Z,3.10
2022-08-09T20:04:10.091Z,3.97
2022-08-09T20:05:50.879Z,3.30
2022-08-09T20:08:33.204Z,3.00
2022-08-09T20:11:04.730Z,4.32
2022-08-09T20:13:37.067Z,3.58
2022-08-09T20:16:33.264Z,4.25
2022-08-09T20:19:42.734Z,3.47
2022-08-09T20:21:55.948Z,3.45
2022-08-09T20:24:31.880Z,4.97
2022-08-09T20:27:05.592Z,5.43
2022-08-09T20:29:39.183Z,134.15
2022-08-09T20:32:31.081Z,160.90
2022-08-09T20:34:57.607Z,216.38
2022-08-09T20:40:14.063Z,295.20
2022-08-09T20:41:44.846Z,218.10
2022-08-09T20:44:26.508Z,186.52
2022-08-09T20:46:57.711Z,140.68
2022-08-09T20:49:27.486Z,158.05
2022-08-09T20:51:57.740Z,146.10
2022-08-09T20:54:30.495Z,177.15
2022-08-09T20:56:59.094Z,243.98
2022-08-09T21:00:20.497Z,291.05
2022-08-09T21:02:18.657Z,259.48
2022-08-09T21:05:50.941Z,252.32
2022-08-09T21:07:38.766Z,209.50
2022-08-09T21:10:11.859Z,162.85
2022-08-09T21:12:40.596Z,130.98
2022-08-09T21:15:34.312Z,159.30
2022-08-09T21:18:24.062Z,243.55
2022-08-09T21:20:54.289Z,329.25
2022-08-09T21:23:36.027Z,385.43
2022-08-09T21:26:15.553Z,291.92
2022-08-09T21:28:55.700Z,155.82
2022-08-09T21:31:49.226Z,130.15
2022-08-09T21:34:21.067Z,106.78
2022-08-09T21:36:57.544Z,97.80
2022-08-09T21:39:27.906Z,88.75
2022-08-09T21:42:05.006Z,88.35
2022-08-09T21:44:35.597Z,83.53
2022-08-09T21:47:07.854Z,81.40
2022-08-09T21:49:39.988Z,67.60
2022-08-09T21:52:14.956Z,66.18
2022-08-09T21:54:49.345Z,57.70
2022-08-09T21:57:37.034Z,57.20
2022-08-09T22:00:10.785Z,54.50
2022-08-09T22:02:43.057Z,53.17
2022-08-09T22:05:22.845Z,49.53
2022-08-09T22:07:54.033Z,44.47
2022-08-09T22:10:23.984Z,36.70
2022-08-09T22:12:54.390Z,43.55
2022-08-09T22:15:34.856Z,37.47
2022-08-09T22:18:04.361Z,28.05
2022-08-09T22:20:40.801Z,29.83
2022-08-09T22:23:10.547Z,25.92
2022-08-09T22:26:07.034Z,27.35
2022-08-09T22:28:33.995Z,21.95
2022-08-09T22:31:03.056Z,18.73
2022-08-09T22:33:42.570Z,20.88
2022-08-09T22:36:19.366Z,20.20
2022-08-09T22:38:49.072Z,16.93
2022-08-09T22:41:19.297Z,18.27
2022-08-09T22:44:02.654Z,14.90
2022-08-09T22:48:14.809Z,11.60
2022-08-09T22:49:23.393Z,11.80
2022-08-09T22:51:56.969Z,11.30
2022-08-09T22:54:27.115Z,13.70
2022-08-09T22:56:58.552Z,9.15
2022-08-09T22:59:58.467Z,11.25
2022-08-09T23:02:20.402Z,11.00
2022-08-09T23:04:53.710Z,8.50
2022-08-09T23:08:21.944Z,9.40
2022-08-09T23:10:30.173Z,11.55
2022-08-09T23:12:59.269Z,11.35
2022-08-09T23:15:30.240Z,9.05
2022-08-09T23:17:58.968Z,8.00
2022-08-09T23:20:28.829Z,9.77
2022-08-09T23:22:57.532Z,8.25
2022-08-09T23:25:26.152Z,7.60
2022-08-09T23:28:14.253Z,7.45
2022-08-09T23:30:51.229Z,7.20
2022-08-09T23:33:20.841Z,5.72
2022-08-09T23:36:04.638Z,6.38
2022-08-09T23:38:34.970Z,6.28
2022-08-09T23:41:04.328Z,7.10
2022-08-09T23:43:32.931Z,6.68
2022-08-09T23:46:02.910Z,4.25
2022-08-09T23:48:31.517Z,4.82
2022-08-09T23:51:00.170Z,5.85
2022-08-09T23:53:32.117Z,5.47
2022-08-09T23:56:06.889Z,4.45
2022-08-09T23:58:35.660Z,4.38
